Time;durP1;ratioP1;P1;durP2;ratioP2;P2;SDS_P1;SDS_P2;PMS_P1;PMS_P2;Temp;Humidity;BMP_temperature;BMP_pressure;BME280_temperature;BME280_humidity;BME280_pressure;Samples;Min_cycle;Max_cycle;Signal;HPM_P1;HPM_P2
2022/09/27 00:02:24;;;;;;;7.53;6.97;;;;;;;18.89;100.00;126171.31;5093992;28;20192;-61
2022/09/27 00:04:51;;;;;;;7.37;6.80;;;;;;;18.88;100.00;144737.59;5094245;28;20211;-62
2022/09/27 00:07:18;;;;;;;10.50;7.13;;;;;;;19.05;100.00;150825.44;5093925;28;20229;-61
2022/09/27 00:09:45;;;;;;;8.23;7.47;;;;;;;19.15;100.00;150850.88;5093808;28;20219;-62
2022/09/27 00:12:12;;;;;;;7.63;6.90;;;;;;;19.15;100.00;150852.16;5094183;28;20544;-61
2022/09/27 00:14:39;;;;;;;7.87;7.47;;;;;;;19.25;100.00;150876.34;5093696;28;20212;-62
2022/09/27 00:17:08;;;;;;;8.13;6.80;;;;;;;19.11;100.00;150840.69;5093749;28;20283;-62
2022/09/27 00:19:35;;;;;;;8.43;7.63;;;;;;;19.10;100.00;150838.13;5075491;28;20257;-62
2022/09/27 00:22:02;;;;;;;7.93;7.23;;;;;;;19.08;100.00;150833.06;5093701;28;20184;-61
2022/09/27 00:24:30;;;;;;;8.53;7.77;;;;;;;18.70;100.00;139596.06;5093760;28;20188;-61
2022/09/27 00:26:58;;;;;;;8.10;7.47;;;;;;;18.84;100.00;130195.13;5093375;28;20279;-61
2022/09/27 00:29:25;;;;;;;8.67;8.27;;;;;;;18.55;100.00;105672.53;5093535;28;20244;-62
2022/09/27 00:31:52;;;;;;;13.77;8.27;;;;;;;18.51;100.00;102995.31;5093304;28;20275;-62
2022/09/27 00:34:22;;;;;;;9.03;8.27;;;;;;;18.56;100.00;101669.72;5093401;28;20191;-61
2022/09/27 00:36:50;;;;;;;8.40;7.87;;;;;;;18.51;100.00;99660.69;5093790;28;20224;-61
2022/09/27 00:39:17;;;;;;;8.47;7.80;;;;;;;18.35;100.00;87327.28;5093620;28;20299;-60
2022/09/27 00:41:45;;;;;;;8.87;8.20;;;;;;;18.25;100.00;80679.16;5093709;28;20235;-61
2022/09/27 00:45:01;;;;;;;8.90;8.50;;;;;;;18.24;100.00;73396.06;5093099;28;20199;-61
2022/09/27 00:47:33;;;;;;;8.40;7.73;;;;;;;18.32;100.00;80356.75;5011112;28;20238;-61
2022/09/27 00:50:05;;;;;;;8.00;7.63;;;;;;;18.33;100.00;84005.63;5075839;28;20234;-61
2022/09/27 00:52:40;;;;;;;8.27;7.50;;;;;;;18.19;100.00;77360.06;5093047;28;20188;-62
2022/09/27 00:55:13;;;;;;;8.27;7.73;;;;;;;18.21;100.00;71739.59;5093015;28;20210;-61
2022/09/27 00:57:42;;;;;;;7.97;7.57;;;;;;;18.32;100.00;73405.47;5075053;28;20219;-61
2022/09/27 01:00:12;;;;;;;7.43;7.03;;;;;;;18.32;100.00;73075.44;5093185;28;20242;-62
2022/09/27 01:02:43;;;;;;;8.97;8.27;;;;;;;18.46;100.00;78388.59;5092748;28;20212;-61
2022/09/27 01:05:13;;;;;;;8.33;7.90;;;;;;;18.30;100.00;82343.28;5093139;28;20626;-62
2022/09/27 01:07:40;;;;;;;8.70;8.00;;;;;;;18.26;100.00;73729.22;5092755;28;20275;-61
2022/09/27 01:10:08;;;;;;;8.33;7.97;;;;;;;18.39;100.00;74076.38;5092990;28;20659;-62
2022/09/27 01:12:45;;;;;;;8.63;8.17;;;;;;;18.44;100.00;71437.25;5092829;28;20797;-61
2022/09/27 01:15:23;;;;;;;8.70;7.70;;;;;;;18.36;100.00;70105.69;5093108;28;20209;-61
2022/09/27 01:18:02;;;;;;;8.00;7.60;;;;;;;18.41;100.00;71103.06;5092331;28;20302;-61
2022/09/27 01:20:52;;;;;;;9.27;8.37;;;;;;;18.25;100.00;67120.88;5092887;28;20184;-61
2022/09/27 01:23:42;;;;;;;8.73;8.07;;;;;;;18.47;100.00;69127.69;5092722;28;20290;-62
2022/09/27 01:26:17;;;;;;;8.10;7.60;;;;;;;18.55;100.00;74096.66;5090066;28;20282;-61
2022/09/27 01:28:56;;;;;;;7.80;7.50;;;;;;;18.51;100.00;72107.03;5092528;28;20187;-62
2022/09/27 01:31:33;;;;;;;8.00;7.33;;;;;;;18.37;100.00;66473.97;5092564;28;20276;-62
2022/09/27 01:34:07;;;;;;;7.97;7.43;;;;;;;18.42;100.00;68130.38;5092609;28;20224;-62
2022/09/27 01:36:43;;;;;;;8.20;7.37;;;;;;;18.56;100.00;69798.63;5092548;28;20216;-62
2022/09/27 01:39:26;;;;;;;8.00;7.50;;;;;;;18.56;100.00;69799.25;5092019;28;20208;-61
2022/09/27 01:42:02;;;;;;;8.07;7.47;;;;;;;18.56;100.00;66826.38;5092072;28;20215;-61
2022/09/27 01:44:35;;;;;;;7.20;6.70;;;;;;;18.51;100.00;65500.31;5092142;28;20270;-62
2022/09/27 01:47:05;;;;;;;7.37;6.97;;;;;;;18.45;100.00;61865.69;5091974;28;20222;-61
2022/09/27 01:49:39;;;;;;;7.63;7.20;;;;;;;18.48;100.00;64836.44;5092447;28;20180;-61
2022/09/27 01:52:10;;;;;;;7.37;6.97;;;;;;;18.65;100.00;70471.06;5092028;28;20224;-61
2022/09/27 01:54:43;;;;;;;7.73;6.80;;;;;;;18.71;100.00;79747.13;5092350;28;20650;-61
2022/09/27 01:57:12;;;;;;;7.30;6.70;;;;;;;18.89;100.00;93060.22;5091979;28;20184;-62
2022/09/27 01:59:45;;;;;;;6.93;6.50;;;;;;;18.94;100.00;102402.75;5091732;28;20295;-61
2022/09/27 02:02:16;;;;;;;6.63;6.23;;;;;;;19.14;100.00;114477.94;5091713;28;20195;-62
2022/09/27 02:04:45;;;;;;;7.37;6.97;;;;;;;19.19;100.00;116498.72;5091878;28;20275;-62
2022/09/27 02:07:17;;;;;;;6.97;6.67;;;;;;;19.07;100.00;124529.41;5091771;28;20238;-61
2022/09/27 02:09:50;;;;;;;7.93;6.53;;;;;;;19.32;100.00;127607.28;5092094;28;20180;-62
2022/09/27 02:12:23;;;;;;;7.50;7.10;;;;;;;19.14;100.00;136324.38;5091752;28;20245;-61
2022/09/27 02:14:55;;;;;;;6.87;6.30;;;;;;;19.40;100.00;146710.13;5091709;28;20212;-61
2022/09/27 02:17:37;;;;;;;6.60;6.10;;;;;;;19.41;100.00;150915.75;5092021;28;20630;-61
2022/09/27 02:20:11;;;;;;;7.33;6.87;;;;;;;19.49;100.00;149287.97;5091606;28;20295;-62
2022/09/27 02:22:43;;;;;;;7.33;6.90;;;;;;;19.50;100.00;150940.00;5092021;28;20629;-61
2022/09/27 02:25:17;;;;;;;7.97;6.73;;;;;;;19.39;100.00;150911.94;5092043;28;20241;-61
2022/09/27 02:27:54;;;;;;;7.00;6.57;;;;;;;19.60;100.00;150964.19;5073676;28;20278;-61
2022/09/27 02:30:22;;;;;;;7.37;6.97;;;;;;;19.57;100.00;150957.81;5091993;28;20615;-62
2022/09/27 02:32:50;;;;;;;6.83;6.43;;;;;;;19.70;100.00;150989.63;5091630;28;20230;-61
2022/09/27 02:35:21;;;;;;;6.17;5.97;;;;;;;19.66;100.00;150978.16;5091633;28;20271;-63
2022/09/27 02:37:48;;;;;;;6.70;6.40;;;;;;;19.49;100.00;150937.44;5091395;28;20223;-61
2022/09/27 02:40:15;;;;;;;6.77;6.37;;;;;;;19.57;100.00;150957.81;5091373;28;20240;-61
2022/09/27 02:42:44;;;;;;;7.10;6.90;;;;;;;19.75;100.00;151002.38;5091462;28;20188;-62
2022/09/27 02:45:14;;;;;;;7.57;6.90;;;;;;;19.47;100.00;129996.97;5091431;28;20216;-61
2022/09/27 02:48:09;;;;;;;7.50;7.20;;;;;;;19.49;100.00;116557.81;5091450;28;20220;-61
2022/09/27 02:51:09;;;;;;;10.13;6.73;;;;;;;19.52;100.00;118912.75;5091718;28;20227;-61
2022/09/27 02:53:48;;;;;;;7.73;7.23;;;;;;;19.59;100.00;114564.13;5086964;28;20673;-61
2022/09/27 02:56:25;;;;;;;7.40;6.80;;;;;;;19.58;100.00;114563.13;5091490;28;20244;-61
2022/09/27 02:59:01;;;;;;;6.82;6.53;;;;;;;19.55;100.00;127320.38;5091464;28;20555;-61
2022/09/27 03:01:36;;;;;;;6.90;6.50;;;;;;;19.63;100.00;135760.13;5091425;28;20221;-62
2022/09/27 03:04:11;;;;;;;7.07;6.77;;;;;;;19.35;100.00;108155.13;5091320;28;20241;-61
2022/09/27 03:06:40;;;;;;;7.10;6.60;;;;;;;19.29;100.00;94122.03;5091472;28;20628;-61
2022/09/27 03:09:14;;;;;;;8.13;7.67;;;;;;;19.45;100.00;95481.75;5091512;28;20608;-61
2022/09/27 03:11:41;;;;;;;7.13;6.83;;;;;;;19.37;100.00;91469.97;5091458;28;20181;-61
2022/09/27 03:14:08;;;;;;;9.17;7.23;;;;;;;19.39;100.00;92805.28;5092887;28;20275;-61
2022/09/27 03:16:36;;;;;;;7.13;6.73;;;;;;;19.34;100.00;90800.25;5094864;28;20180;-62
2022/09/27 03:19:05;;;;;;;7.90;7.20;;;;;;;19.26;100.00;87793.53;5094700;28;20228;-62
2022/09/27 03:21:31;;;;;;;8.33;7.70;;;;;;;19.27;100.00;91454.44;5094995;28;20226;-61
2022/09/27 03:23:58;;;;;;;7.70;6.97;;;;;;;19.13;100.00;79471.81;5095135;28;20196;-61
2022/09/27 03:26:26;;;;;;;7.90;7.40;;;;;;;18.89;100.00;73145.41;5095121;28;20691;-62
2022/09/27 03:28:53;;;;;;;8.57;7.90;;;;;;;19.10;100.00;84115.06;5094575;28;20180;-61
2022/09/27 03:31:20;;;;;;;8.17;7.43;;;;;;;19.20;100.00;83132.28;5094724;28;20212;-62
2022/09/27 03:33:47;;;;;;;9.27;8.30;;;;;;;19.17;100.00;85785.59;5094838;28;20278;-62
2022/09/27 03:36:16;;;;;;;14.27;9.63;;;;;;;19.29;100.00;101794.66;5095069;28;20627;-62
2022/09/27 03:38:43;;;;;;;11.27;8.80;;;;;;;19.10;100.00;113801.16;5094745;28;20666;-61
2022/09/27 03:41:10;;;;;;;11.20;9.03;;;;;;;19.08;100.00;113797.31;5094647;28;20188;-62
2022/09/27 03:43:37;;;;;;;9.23;8.57;;;;;;;19.04;100.00;128221.72;5094476;28;20224;-64
2022/09/27 03:46:04;;;;;;;11.93;8.80;;;;;;;19.37;100.00;129973.88;5094248;28;20279;-62
2022/09/27 03:48:31;;;;;;;9.67;8.90;;;;;;;19.49;100.00;147611.47;5094550;28;20270;-62
2022/09/27 03:50:59;;;;;;;12.43;8.53;;;;;;;19.56;100.00;136757.34;5094557;28;20188;-61
2022/09/27 03:53:27;;;;;;;13.47;8.17;;;;;;;19.63;100.00;123301.28;5094208;28;20271;-61
2022/09/27 03:55:54;;;;;;;18.87;10.20;;;;;;;19.68;100.00;120286.25;5094086;28;20181;-61
2022/09/27 03:58:21;;;;;;;12.43;9.20;;;;;;;19.67;100.00;107878.97;5094062;28;20245;-63
2022/09/27 04:00:48;;;;;;;14.40;8.20;;;;;;;19.53;100.00;101502.00;5094297;28;20664;-62
2022/09/27 04:03:16;;;;;;;12.10;9.00;;;;;;;19.53;100.00;101168.00;5094394;28;20710;-61
2022/09/27 04:05:43;;;;;;;14.33;9.60;;;;;;;19.60;100.00;98842.53;5093845;28;20215;-61
2022/09/27 04:08:11;;;;;;;24.73;10.30;;;;;;;19.63;100.00;102854.94;5093920;28;20220;-62
2022/09/27 04:10:39;;;;;;;17.90;10.33;;;;;;;19.42;100.00;99146.13;5094233;28;20199;-61
2022/09/27 04:13:06;;;;;;;11.53;8.87;;;;;;;19.35;100.00;82157.13;5094043;28;20286;-62
2022/09/27 04:15:33;;;;;;;26.83;11.20;;;;;;;19.37;100.00;79172.50;5093751;28;20271;-61
2022/09/27 04:18:00;;;;;;;20.83;10.13;;;;;;;19.37;100.00;80831.16;5093918;28;20278;-60
2022/09/27 04:20:27;;;;;;;16.70;11.00;;;;;;;19.40;100.00;79176.53;5093528;28;20250;-61
2022/09/27 04:22:54;;;;;;;59.67;16.13;;;;;;;19.41;100.00;90144.44;5093877;28;20286;-62
2022/09/27 04:25:21;;;;;;;13.10;10.40;;;;;;;19.25;100.00;96782.81;5092436;28;20184;-61
2022/09/27 04:27:53;;;;;;;11.95;10.00;;;;;;;19.48;100.00;121591.06;5093721;28;20601;-61
2022/09/27 04:30:21;;;;;;;16.13;11.57;;;;;;;19.58;100.00;150960.38;5093343;28;20180;-61
2022/09/27 04:32:48;;;;;;;23.53;11.00;;;;;;;19.74;100.00;122986.91;5093385;28;20360;-61
2022/09/27 04:37:59;;;;;;;39.90;11.47;;;;;;;19.83;100.00;103557.56;5093306;28;20222;-61
2022/09/27 04:40:27;;;;;;;28.43;10.93;;;;;;;19.77;100.00;100873.31;5093204;28;20291;-61
2022/09/27 04:42:55;;;;;;;30.33;11.67;;;;;;;19.85;100.00;115956.53;5093067;28;20180;-62
2022/09/27 04:45:22;;;;;;;23.03;12.03;;;;;;;19.90;100.00;109929.63;5093355;28;20220;-61
2022/09/27 04:47:50;;;;;;;22.37;11.50;;;;;;;19.94;100.00;103911.31;5093208;28;20275;-61
2022/09/27 04:50:18;;;;;;;36.20;11.20;;;;;;;19.92;100.00;99562.47;5093351;28;20247;-61
2022/09/27 04:52:50;;;;;;;22.13;12.00;;;;;;;20.17;100.00;103951.72;5092945;28;20224;-62
2022/09/27 04:55:19;;;;;;;19.15;12.35;;;;;;;20.10;100.00;105946.47;5093256;28;20185;-62
2022/09/27 04:57:46;;;;;;;25.13;11.90;;;;;;;20.23;100.00;123425.16;5092944;28;20202;-62
2022/09/27 05:00:16;;;;;;;29.60;12.05;;;;;;;20.30;100.00;117051.34;5093118;28;20242;-61
2022/09/27 05:02:43;;;;;;;27.00;12.32;;;;;;;20.40;100.00;116399.22;5092775;28;20219;-62
2022/09/27 05:05:10;;;;;;;35.83;13.27;;;;;;;20.49;100.00;125836.66;5092987;28;20184;-61
2022/09/27 05:07:38;;;;;;;31.27;12.80;;;;;;;20.44;100.00;136958.13;5092589;28;20215;-62
2022/09/27 05:10:06;;;;;;;27.85;12.60;;;;;;;20.64;100.00;141348.28;5093014;28;20264;-63
2022/09/27 05:12:33;;;;;;;22.75;12.20;;;;;;;20.76;100.00;139737.66;5092692;28;20632;-55
2022/09/27 05:15:00;;;;;;;29.42;12.43;;;;;;;20.74;100.00;142144.34;5092837;28;20629;-61
2022/09/27 05:17:28;;;;;;;43.13;26.90;;;;;;;20.98;100.00;146142.69;5092908;28;20676;-63
2022/09/27 05:19:55;;;;;;;24.92;11.73;;;;;;;21.01;100.00;151318.19;5092682;28;20318;-60
2022/09/27 05:22:22;;;;;;;38.47;13.13;;;;;;;21.21;100.00;151370.53;5092740;28;20231;-61
2022/09/27 05:24:49;;;;;;;98.60;78.97;;;;;;;21.77;100.00;151510.66;5092523;28;20275;-62
2022/09/27 05:27:19;;;;;;;29.85;12.95;;;;;;;22.45;100.00;151682.84;5092688;28;20223;-63
2022/09/27 05:29:46;;;;;;;22.95;11.55;;;;;;;22.66;100.00;151735.16;5092581;28;20203;-64
2022/09/27 05:32:14;;;;;;;17.27;10.73;;;;;;;22.80;100.00;151769.63;5092765;28;20669;-64
2022/09/27 05:34:42;;;;;;;24.25;10.75;;;;;;;22.99;100.00;151819.41;5092743;28;20234;-62
2022/09/27 05:37:09;;;;;;;27.00;10.63;;;;;;;23.02;100.00;151825.75;5092279;28;20618;-63
2022/09/27 05:39:36;;;;;;;50.65;11.88;;;;;;;23.12;100.00;151852.56;5092257;28;20204;-65
2022/09/27 05:42:09;;;;;;;50.00;13.73;;;;;;;23.18;100.00;151867.84;5092253;28;20213;-63
2022/09/27 05:44:38;;;;;;;37.65;12.55;;;;;;;23.11;100.00;151850.00;5092422;28;20184;-63
2022/09/27 05:47:08;;;;;;;33.50;11.45;;;;;;;22.97;100.00;151814.28;5092546;28;20188;-63
2022/09/27 05:49:36;;;;;;;29.27;10.23;;;;;;;22.80;100.00;151769.63;5092818;28;20597;-64
2022/09/27 05:52:04;;;;;;;20.25;10.13;;;;;;;22.81;100.00;151772.19;5092037;28;20192;-63
2022/09/27 05:54:31;;;;;;;19.23;10.43;;;;;;;22.69;100.00;151744.13;5092176;28;20278;-62
2022/09/27 05:56:59;;;;;;;24.90;10.25;;;;;;;22.81;100.00;151773.47;5092061;28;20237;-63
2022/09/27 05:59:28;;;;;;;24.65;11.15;;;;;;;22.90;100.00;151795.16;5091810;28;20329;-61
2022/09/27 06:01:55;;;;;;;30.92;11.70;;;;;;;22.99;100.00;151819.41;5091710;28;20267;-64
2022/09/27 06:04:22;;;;;;;17.10;10.43;;;;;;;23.16;100.00;151862.78;5092151;28;20306;-63
2022/09/27 06:06:49;;;;;;;30.90;11.32;;;;;;;23.26;100.00;151887.00;5091755;28;20188;-64
2022/09/27 06:09:18;;;;;;;23.48;11.77;;;;;;;23.76;100.00;152012.13;5092189;28;20270;-63
2022/09/27 06:11:45;;;;;;;39.75;10.60;;;;;;;24.63;100.00;152231.75;5092082;28;20220;-63
2022/09/27 06:14:13;;;;;;;20.73;9.18;;;;;;;25.58;100.00;152473.34;5092088;28;20180;-64
2022/09/27 06:16:41;;;;;;;24.33;8.82;;;;;;;25.53;100.00;152460.53;5092161;28;20550;-64
2022/09/27 06:19:09;;;;;;;28.13;8.35;;;;;;;25.93;100.00;152562.75;5091428;28;20297;-64
2022/09/27 06:21:36;;;;;;;25.27;8.18;;;;;;;26.18;100.00;152625.41;5092164;28;20266;-63
2022/09/27 06:24:03;;;;;;;17.00;7.97;;;;;;;26.37;100.00;152672.75;5092201;28;20234;-65
2022/09/27 06:26:32;;;;;;;11.95;6.05;;;;;;;26.42;100.00;152685.56;5092351;28;20635;-64
2022/09/27 06:29:00;;;;;;;10.50;6.15;;;;;;;26.45;100.00;152693.22;5092286;28;20192;-64
2022/09/27 06:31:27;;;;;;;18.25;6.80;;;;;;;26.70;100.00;152755.88;5091960;28;20267;-64
2022/09/27 06:33:54;;;;;;;17.83;6.60;;;;;;;26.78;100.00;152777.59;5091837;28;20215;-63
2022/09/27 06:36:21;;;;;;;8.68;5.50;;;;;;;26.66;100.00;152745.63;5091385;28;20188;-61
2022/09/27 06:38:50;;;;;;;6.03;5.30;;;;;;;26.36;100.00;152670.19;5091226;28;20646;-63
2022/09/27 06:41:17;;;;;;;8.25;5.50;;;;;;;26.29;100.00;152652.31;5091087;28;20257;-62
2022/09/27 06:43:48;;;;;;;7.13;5.57;;;;;;;26.33;100.00;152662.53;5091241;28;20222;-62
2022/09/27 06:46:17;;;;;;;5.32;4.88;;;;;;;26.19;100.00;152626.69;5091524;28;20707;-63
2022/09/27 06:48:44;;;;;;;5.72;5.18;;;;;;;25.59;100.00;152475.84;5092717;28;20255;-63
2022/09/27 06:51:11;;;;;;;5.55;5.13;;;;;;;25.78;100.00;152524.44;5095754;28;20263;-63
2022/09/27 06:53:38;;;;;;;5.72;5.25;;;;;;;25.99;100.00;152575.56;5077668;28;20617;-63
2022/09/27 06:56:06;;;;;;;5.55;5.25;;;;;;;26.28;100.00;152649.75;5095222;28;20270;-62
2022/09/27 07:01:19;;;;;;;6.20;5.70;;;;;;;26.55;100.00;152718.81;5095442;28;20700;-63
2022/09/27 07:03:50;;;;;;;9.18;8.52;;;;;;;26.55;100.00;152718.81;5095124;28;20184;-60
2022/09/27 07:06:21;;;;;;;429.70;304.83;;;;;;;26.53;100.00;152712.38;5095406;28;20607;-60
2022/09/27 07:08:52;;;;;;;6.85;6.20;;;;;;;26.33;100.00;152663.81;5095059;28;20180;-61
2022/09/27 07:11:24;;;;;;;6.88;5.20;;;;;;;26.00;100.00;152579.41;5095066;28;20223;-60
2022/09/27 07:13:52;;;;;;;6.60;5.68;;;;;;;25.75;100.00;152516.78;5094827;28;20188;-61
2022/09/27 07:16:20;;;;;;;8.48;5.60;;;;;;;25.72;100.00;152507.81;5094944;28;20192;-60
2022/09/27 07:18:49;;;;;;;6.03;5.60;;;;;;;26.13;100.00;152611.38;5094508;28;20318;-63
2022/09/27 07:21:16;;;;;;;4.68;4.38;;;;;;;26.34;100.00;152666.41;5094344;28;20239;-63
2022/09/27 07:23:45;;;;;;;5.35;5.05;;;;;;;26.92;100.00;152812.19;5094300;28;20200;-63
2022/09/27 07:26:12;;;;;;;4.38;4.18;;;;;;;27.44;100.00;152943.97;5094651;28;20187;-63
2022/09/27 07:28:40;;;;;;;4.28;4.00;;;;;;;27.59;100.00;152981.09;5094869;28;20598;-64
2022/09/27 07:31:08;;;;;;;4.05;3.65;;;;;;;27.78;98.67;153028.47;5094570;28;20176;-64
2022/09/27 07:33:37;;;;;;;4.10;3.80;;;;;;;27.92;96.52;153065.56;5094506;28;20195;-65
2022/09/27 07:36:07;;;;;;;3.80;3.60;;;;;;;27.96;95.16;153074.56;5094989;28;20686;-65
2022/09/27 07:38:35;;;;;;;3.55;3.45;;;;;;;27.38;96.34;152927.31;5094364;28;20223;-65
2022/09/27 07:41:06;;;;;;;3.80;3.70;;;;;;;27.56;98.95;152974.72;5094377;28;20301;-65
2022/09/27 07:43:33;;;;;;;4.70;4.40;;;;;;;27.93;97.16;153068.13;5094592;28;20200;-66
2022/09/27 07:46:00;;;;;;;6.03;3.63;;;;;;;27.96;96.43;153075.84;5094563;28;20651;-65
2022/09/27 07:48:28;;;;;;;3.65;3.55;;;;;;;27.75;97.86;153022.09;5094603;28;20188;-65
2022/09/27 07:50:56;;;;;;;3.60;3.50;;;;;;;27.66;98.02;152999.03;5094128;28;20192;-64
2022/09/27 07:53:23;;;;;;;4.53;4.28;;;;;;;27.79;99.08;153031.03;5094656;28;20216;-63
2022/09/27 07:55:51;;;;;;;3.88;3.58;;;;;;;27.63;99.42;152991.34;5094776;28;20226;-63
2022/09/27 07:58:20;;;;;;;3.67;3.58;;;;;;;27.83;98.67;153041.28;5094336;28;20188;-64
2022/09/27 08:00:47;;;;;;;4.35;4.13;;;;;;;28.05;97.50;153097.59;5093849;28;20257;-65
2022/09/27 08:03:17;;;;;;;4.68;4.20;;;;;;;28.29;97.07;153159.06;5094538;28;20188;-65
2022/09/27 08:05:45;;;;;;;4.07;3.70;;;;;;;28.29;96.30;153159.06;5094190;28;20226;-65
2022/09/27 08:08:16;;;;;;;3.38;3.28;;;;;;;28.25;95.52;153147.53;5095085;28;20275;-64
2022/09/27 08:10:46;;;;;;;4.10;3.80;;;;;;;28.44;95.94;153196.16;5093909;28;20195;-65
2022/09/27 08:13:16;;;;;;;4.55;3.50;;;;;;;28.52;94.38;153216.66;5094124;28;20279;-65
2022/09/27 08:15:43;;;;;;;3.63;3.42;;;;;;;28.23;95.63;153143.69;5094291;28;20188;-66
2022/09/27 08:18:10;;;;;;;6.88;3.13;;;;;;;27.94;97.19;153070.69;5094397;28;20326;-65
2022/09/27 08:20:39;;;;;;;4.20;3.92;;;;;;;27.71;99.01;153011.81;5095072;28;20543;-65
2022/09/27 08:23:09;;;;;;;3.40;3.30;;;;;;;27.64;99.58;152995.19;5094302;28;20204;-66
2022/09/27 08:25:42;;;;;;;4.07;3.88;;;;;;;28.06;98.43;153100.13;5094664;28;20310;-64
2022/09/27 08:28:09;;;;;;;3.92;3.72;;;;;;;28.26;97.18;153150.13;5093985;28;20503;-65
2022/09/27 08:30:37;;;;;;;2.90;2.80;;;;;;;28.05;96.58;153097.59;5088571;28;20223;-64
2022/09/27 08:33:04;;;;;;;3.85;3.45;;;;;;;28.03;98.84;153092.47;5084046;28;20232;-63
2022/09/27 08:35:32;;;;;;;13.00;4.20;;;;;;;28.18;97.33;153130.88;5085797;28;20635;-65
2022/09/27 08:38:04;;;;;;;3.85;3.65;;;;;;;28.19;97.53;153133.44;5085604;28;20199;-65
2022/09/27 08:40:46;;;;;;;3.53;3.33;;;;;;;28.14;98.40;153121.94;5084904;28;20203;-64
2022/09/27 08:43:21;;;;;;;3.63;3.33;;;;;;;27.82;100.00;153040.00;5093306;28;20257;-66
2022/09/27 08:46:04;;;;;;;3.33;3.22;;;;;;;27.81;100.00;153036.13;5093399;28;20222;-65
2022/09/27 08:48:32;;;;;;;3.50;3.20;;;;;;;27.96;100.00;153075.84;5093338;28;20622;-64
2022/09/27 08:51:15;;;;;;;3.17;3.08;;;;;;;27.89;100.00;153056.59;5093842;28;20203;-66
2022/09/27 08:53:52;;;;;;;3.47;3.28;;;;;;;28.02;100.00;153091.16;5095326;28;20654;-66
2022/09/27 08:56:21;;;;;;;3.67;3.50;;;;;;;27.92;100.00;153065.56;5094316;28;20381;-66
2022/09/27 08:58:53;;;;;;;4.82;3.30;;;;;;;27.78;100.00;153028.47;5091450;28;20192;-66
2022/09/27 09:01:21;;;;;;;3.65;3.35;;;;;;;27.96;100.00;153075.84;5093053;28;20298;-66
2022/09/27 09:03:53;;;;;;;3.95;3.75;;;;;;;27.71;100.00;153013.09;5093138;28;20223;-67
2022/09/27 09:06:24;;;;;;;5.38;3.47;;;;;;;27.37;100.00;152926.03;5093132;28;20188;-66
2022/09/27 09:09:03;;;;;;;3.88;3.58;;;;;;;27.48;100.00;152954.25;5093445;28;20192;-65
2022/09/27 09:14:46;;;;;;;7.65;3.42;;;;;;;27.27;100.00;152900.47;5092884;28;20187;-66
2022/09/27 09:17:23;;;;;;;3.75;3.30;;;;;;;27.17;100.00;152876.16;5076466;28;20223;-65
2022/09/27 09:20:10;;;;;;;3.78;3.50;;;;;;;27.24;100.00;152894.03;5093118;28;20231;-65
2022/09/27 09:22:57;;;;;;;6.80;4.15;;;;;;;27.24;100.00;152894.03;5092695;28;20195;-66
2022/09/27 09:25:31;;;;;;;3.80;3.47;;;;;;;27.37;100.00;152926.03;5092837;28;20526;-61
2022/09/27 09:28:18;;;;;;;4.53;4.22;;;;;;;27.23;100.00;152891.53;5093032;28;20696;-62
2022/09/27 09:30:54;;;;;;;4.25;3.92;;;;;;;27.52;100.00;152964.50;5092703;28;20275;-64
2022/09/27 09:33:27;;;;;;;3.72;3.53;;;;;;;27.41;100.00;152936.31;5093165;28;20210;-59
2022/09/27 09:35:59;;;;;;;4.00;3.72;;;;;;;27.42;100.00;152937.53;5092824;28;20184;-59
2022/09/27 09:38:34;;;;;;;4.55;3.92;;;;;;;27.41;100.00;152936.31;5085373;28;20195;-61
2022/09/27 09:41:07;;;;;;;4.32;3.65;;;;;;;27.34;100.00;152918.38;5079123;28;20218;-59
2022/09/27 09:43:40;;;;;;;4.20;3.88;;;;;;;27.35;100.00;152920.94;5083381;28;20282;-59
2022/09/27 09:46:15;;;;;;;5.20;3.58;;;;;;;27.28;100.00;152903.03;5087884;28;20571;-65
2022/09/27 09:48:48;;;;;;;3.53;3.33;;;;;;;27.44;100.00;152943.97;5092753;28;20222;-65
2022/09/27 09:51:21;;;;;;;3.65;3.45;;;;;;;27.55;100.00;152970.88;5081292;28;20195;-65
2022/09/27 09:53:54;;;;;;;3.40;3.30;;;;;;;27.67;100.00;153001.56;5071942;28;20188;-64
2022/09/27 09:56:27;;;;;;;3.90;3.80;;;;;;;27.55;100.00;152972.16;5072627;28;20277;-62
2022/09/27 09:59:01;;;;;;;4.63;4.22;;;;;;;27.54;100.00;152968.34;5071639;28;20188;-60
2022/09/27 10:01:33;;;;;;;3.88;3.65;;;;;;;27.32;100.00;152912.00;5071394;28;20204;-59
2022/09/27 10:04:00;;;;;;;3.85;3.55;;;;;;;27.50;100.00;152958.06;5071536;28;20217;-59
2022/09/27 10:06:30;;;;;;;4.63;3.53;;;;;;;27.64;100.00;152995.19;5071665;28;20647;-60
2022/09/27 10:08:57;;;;;;;3.95;3.75;;;;;;;27.37;100.00;152924.78;5071506;28;20185;-60
2022/09/27 10:11:32;;;;;;;3.45;3.33;;;;;;;27.58;100.00;152978.56;5070845;28;20227;-61
2022/09/27 10:14:01;;;;;;;3.92;3.63;;;;;;;27.45;100.00;152946.53;5071464;28;20620;-60
2022/09/27 10:16:29;;;;;;;3.38;3.22;;;;;;;27.38;100.00;152928.59;5071550;28;20220;-60
2022/09/27 10:19:00;;;;;;;5.43;3.65;;;;;;;27.28;100.00;152904.28;5071331;28;20281;-60
2022/09/27 10:21:30;;;;;;;5.82;4.38;;;;;;;27.10;100.00;152858.25;5070971;28;20292;-60
2022/09/27 10:24:10;;;;;;;5.70;4.53;;;;;;;27.48;100.00;152954.25;5075014;28;20284;-60
2022/09/27 10:26:38;;;;;;;4.40;3.90;;;;;;;27.42;100.00;152938.84;5075854;28;20227;-60
2022/09/27 10:29:17;;;;;;;4.18;3.55;;;;;;;27.36;100.00;152923.50;5075180;28;20689;-58
2022/09/27 10:31:47;;;;;;;3.88;3.50;;;;;;;27.33;100.00;152915.78;5075637;28;20689;-61
2022/09/27 10:34:30;;;;;;;3.95;3.75;;;;;;;27.53;100.00;152965.78;5075622;28;20258;-58
2022/09/27 10:37:17;;;;;;;5.43;4.40;;;;;;;27.64;100.00;152995.19;5075802;28;20629;-57
2022/09/27 10:43:29;;;;;;;3.50;3.30;;;;;;;27.20;100.00;152882.56;5075633;28;20229;-60
2022/09/27 10:46:21;;;;;;;2.85;2.75;;;;;;;27.05;100.00;152844.19;5075302;28;20710;-59
2022/09/27 10:48:50;;;;;;;4.65;4.03;;;;;;;27.58;100.00;152978.56;5075145;28;20216;-60
2022/09/27 10:51:28;;;;;;;3.50;3.00;;;;;;;28.95;100.00;153325.53;5075121;28;20271;-60
2022/09/27 10:53:59;;;;;;;3.67;3.38;;;;;;;29.67;100.00;153508.75;5075027;28;20230;-60
2022/09/27 10:56:29;;;;;;;3.08;2.92;;;;;;;29.92;100.00;153571.59;5075057;28;20180;-61
2022/09/27 10:58:58;;;;;;;3.97;3.25;;;;;;;29.94;98.59;153578.03;5075097;28;20272;-60
2022/09/27 11:01:38;;;;;;;3.55;3.25;;;;;;;29.87;98.79;153558.81;5075039;28;20230;-60
2022/09/27 11:04:06;;;;;;;3.80;2.92;;;;;;;29.35;100.00;153428.09;5075410;28;20208;-61
2022/09/27 11:06:37;;;;;;;3.15;3.05;;;;;;;28.82;100.00;153292.25;5075015;28;20228;-60
2022/09/27 11:09:17;;;;;;;3.58;3.03;;;;;;;28.18;100.00;153130.88;5075582;28;20697;-60
2022/09/27 11:11:47;;;;;;;4.43;3.53;;;;;;;28.00;100.00;153086.06;5074773;28;20181;-60
2022/09/27 11:14:20;;;;;;;4.55;4.25;;;;;;;27.76;100.00;153023.31;5056917;28;20205;-62
2022/09/27 11:17:10;;;;;;;3.88;3.67;;;;;;;27.39;100.00;152929.88;5074983;28;20222;-62
2022/09/27 11:19:51;;;;;;;4.32;4.00;;;;;;;27.38;100.00;152928.59;5074484;28;20695;-61
2022/09/27 11:22:34;;;;;;;4.35;4.10;;;;;;;27.37;100.00;152924.78;5074723;28;20677;-62
2022/09/27 11:25:17;;;;;;;4.90;4.50;;;;;;;27.44;100.00;152943.97;5074840;28;20691;-62
2022/09/27 11:27:58;;;;;;;6.03;4.00;;;;;;;27.63;100.00;152992.63;5074843;28;20220;-61
2022/09/27 11:30:34;;;;;;;6.07;4.22;;;;;;;27.98;100.00;153079.66;5074636;28;20342;-63
2022/09/27 11:33:32;;;;;;;5.00;4.00;;;;;;;28.18;100.00;153130.88;5074497;28;20631;-62
2022/09/27 11:36:12;;;;;;;6.10;4.57;;;;;;;28.08;100.00;153105.25;5073808;28;20207;-61
2022/09/27 11:38:54;;;;;;;4.00;3.70;;;;;;;27.33;100.00;152914.56;5074083;28;20277;-62
2022/09/27 11:41:34;;;;;;;3.78;3.65;;;;;;;27.52;100.00;152964.50;5074631;28;20690;-63
2022/09/27 11:44:23;;;;;;;4.40;4.20;;;;;;;27.57;100.00;152977.28;5074103;28;20196;-62
2022/09/27 11:47:01;;;;;;;4.75;4.32;;;;;;;27.70;100.00;153010.56;5074447;28;20196;-62
2022/09/27 11:49:57;;;;;;;4.15;3.95;;;;;;;27.69;100.00;153006.72;5056008;28;20200;-62